Time;durP1;ratioP1;P1;durP2;ratioP2;P2;SDS_P1;SDS_P2;PMS_P1;PMS_P2;Temp;Humidity;BMP_temperature;BMP_pressure;BME280_temperature;BME280_humidity;BME280_pressure;Samples;Min_cycle;Max_cycle;Signal;HPM_P1;HPM_P2
2021/12/28 00:01:29;;;;;;;4.22;2.90;;;;;;;19.15;41.82;98345.38;5111010;28;20117;-57
2021/12/28 00:03:55;;;;;;;5.07;3.35;;;;;;;19.13;41.73;98336.63;5111107;28;20138;-66
2021/12/28 00:06:21;;;;;;;5.03;3.30;;;;;;;19.15;41.75;98340.63;5110968;28;20079;-66
2021/12/28 00:08:47;;;;;;;4.15;3.03;;;;;;;19.14;41.75;98335.44;5110946;28;20071;-66
2021/12/28 00:11:13;;;;;;;4.93;3.25;;;;;;;19.12;41.79;98330.28;5110677;28;20048;-57
2021/12/28 00:13:40;;;;;;;5.18;3.72;;;;;;;19.15;41.73;98339.81;5110676;28;20063;-57
2021/12/28 00:18:35;;;;;;;5.05;3.25;;;;;;;19.16;41.67;98316.47;5110760;28;20534;-57
2021/12/28 00:21:03;;;;;;;4.45;3.42;;;;;;;19.14;41.68;98297.41;5110830;28;20039;-57
2021/12/28 00:23:36;;;;;;;4.75;3.45;;;;;;;19.15;41.84;98304.59;5110714;28;20490;-57
2021/12/28 00:26:04;;;;;;;4.72;3.40;;;;;;;19.15;41.74;98303.78;5110628;28;20079;-57
2021/12/28 00:28:30;;;;;;;5.80;3.67;;;;;;;19.13;41.70;98303.38;5110536;28;20040;-57
2021/12/28 00:30:56;;;;;;;4.90;3.22;;;;;;;19.15;41.80;98285.19;5110504;28;20046;-57
2021/12/28 00:33:24;;;;;;;4.78;3.47;;;;;;;19.15;41.74;98285.19;5110641;28;20500;-57
2021/12/28 00:35:50;;;;;;;5.18;3.35;;;;;;;19.15;41.66;98296.25;5092042;28;20193;-57
2021/12/28 00:38:18;;;;;;;5.00;3.40;;;;;;;19.15;41.80;98290.72;5110507;28;20050;-57
2021/12/28 00:40:45;;;;;;;5.40;3.50;;;;;;;19.14;41.83;98291.09;5110233;28;20046;-57
2021/12/28 00:43:10;;;;;;;4.85;3.10;;;;;;;19.14;41.83;98288.31;5110070;28;20146;-57
2021/12/28 00:45:36;;;;;;;5.13;3.63;;;;;;;19.12;41.79;98274.84;5110155;28;20214;-57
2021/12/28 00:48:01;;;;;;;4.20;3.25;;;;;;;19.11;41.78;98270.50;5110303;28;20044;-57
2021/12/28 00:50:27;;;;;;;5.50;3.33;;;;;;;19.13;41.72;98270.91;5110195;28;20039;-57
2021/12/28 00:52:55;;;;;;;5.18;3.33;;;;;;;19.12;41.70;98263.78;5110483;28;20074;-57
2021/12/28 00:55:21;;;;;;;4.53;3.35;;;;;;;19.13;41.69;98253.47;5110333;28;20356;-66
2021/12/28 00:57:47;;;;;;;4.68;3.28;;;;;;;19.09;41.78;98253.47;5110202;28;20054;-57
2021/12/28 01:00:17;;;;;;;5.47;3.70;;;;;;;19.22;41.69;98256.69;5110069;28;20051;-57
2021/12/28 01:02:43;;;;;;;4.57;3.10;;;;;;;20.14;40.02;98258.75;5110027;28;21325;-66
2021/12/28 01:05:10;;;;;;;4.70;3.25;;;;;;;20.23;39.75;98263.94;5109539;28;20503;-66
2021/12/28 01:07:35;;;;;;;4.45;3.05;;;;;;;20.05;40.06;98266.69;5109461;28;20096;-66
2021/12/28 01:10:05;;;;;;;4.35;3.00;;;;;;;19.86;40.41;98247.66;5109804;28;20043;-66
2021/12/28 01:12:31;;;;;;;4.95;3.25;;;;;;;19.72;40.71;98263.16;5109811;28;20048;-66
2021/12/28 01:14:56;;;;;;;4.30;2.95;;;;;;;20.23;40.05;98258.38;5109906;28;20059;-66
2021/12/28 01:17:22;;;;;;;4.40;3.10;;;;;;;21.19;37.82;98255.28;5110154;28;20043;-66
2021/12/28 01:19:47;;;;;;;5.47;3.85;;;;;;;20.86;38.61;98267.78;5109857;28;20036;-66
2021/12/28 01:22:13;;;;;;;4.80;3.30;;;;;;;20.57;39.25;98278.16;5109703;28;20132;-66
2021/12/28 01:24:38;;;;;;;5.00;3.40;;;;;;;20.31;39.38;98299.63;5109627;28;20511;-64
2021/12/28 01:27:04;;;;;;;5.28;3.58;;;;;;;20.11;39.80;98301.19;5109524;28;20032;-63
2021/12/28 01:29:29;;;;;;;4.85;3.30;;;;;;;19.94;40.19;98302.00;5109560;28;20041;-63
2021/12/28 01:31:55;;;;;;;4.90;3.70;;;;;;;19.82;40.32;98305.94;5109648;28;20067;-63
2021/12/28 01:34:21;;;;;;;5.20;3.40;;;;;;;19.71;40.74;98303.16;5109383;28;20040;-63
2021/12/28 01:36:46;;;;;;;4.65;3.58;;;;;;;19.65;40.83;98312.28;5109596;28;20075;-62
2021/12/28 01:39:12;;;;;;;4.65;3.42;;;;;;;19.60;40.94;98313.44;5109682;28;20216;-64
2021/12/28 01:41:38;;;;;;;4.78;3.45;;;;;;;19.52;40.99;98317.38;5091093;28;20135;-64
2021/12/28 01:44:06;;;;;;;5.15;3.60;;;;;;;19.47;41.15;98332.41;5109534;28;20527;-64
2021/12/28 01:46:33;;;;;;;4.63;3.28;;;;;;;19.45;41.24;98339.53;5109516;28;20051;-64
2021/12/28 01:48:58;;;;;;;5.03;3.42;;;;;;;19.41;41.37;98342.28;5109612;28;20044;-64
2021/12/28 01:51:26;;;;;;;4.80;3.50;;;;;;;19.39;41.45;98341.88;5109562;28;20050;-63
2021/12/28 01:53:55;;;;;;;4.63;3.25;;;;;;;19.36;41.58;98344.63;5108616;28;20055;-63
2021/12/28 01:56:40;;;;;;;4.75;3.40;;;;;;;19.34;41.50;98350.56;5109303;28;20050;-64
2021/12/28 01:59:09;;;;;;;4.68;3.25;;;;;;;19.33;41.57;98345.41;5109546;28;20094;-64
2021/12/28 02:01:35;;;;;;;5.30;3.42;;;;;;;19.31;41.61;98342.25;5109662;28;20066;-64
2021/12/28 02:04:02;;;;;;;5.53;3.78;;;;;;;19.28;41.51;98338.25;5109210;28;20036;-64
2021/12/28 02:06:29;;;;;;;6.20;3.80;;;;;;;19.27;41.70;98350.53;5109196;28;20052;-64
2021/12/28 02:08:55;;;;;;;4.10;3.20;;;;;;;19.27;41.70;98371.94;5109255;28;20577;-63
2021/12/28 02:11:21;;;;;;;5.07;3.58;;;;;;;19.25;41.75;98370.34;5108935;28;20597;-63
2021/12/28 02:13:47;;;;;;;4.35;3.17;;;;;;;19.25;41.74;98342.63;5109006;28;20523;-64
2021/12/28 02:16:13;;;;;;;4.88;3.50;;;;;;;19.25;41.74;98362.03;5109393;28;20078;-64
2021/12/28 02:18:39;;;;;;;5.03;3.30;;;;;;;19.23;41.74;98352.53;5112538;28;20411;-64
2021/12/28 02:21:06;;;;;;;5.47;3.78;;;;;;;19.23;41.76;98339.47;5113201;28;20138;-65
2021/12/28 02:23:32;;;;;;;5.88;3.67;;;;;;;19.25;41.74;98353.72;5113022;28;20047;-65
2021/12/28 02:25:58;;;;;;;5.18;3.47;;;;;;;19.24;41.82;98354.91;5113101;28;20088;-64
2021/12/28 02:28:23;;;;;;;4.82;3.45;;;;;;;19.23;41.78;98367.19;5112684;28;20047;-64
2021/12/28 02:30:51;;;;;;;5.63;3.42;;;;;;;19.24;41.79;98376.28;5112484;28;20043;-64
2021/12/28 02:33:20;;;;;;;4.80;3.50;;;;;;;19.23;41.79;98366.38;5112459;28;20046;-64
2021/12/28 02:35:45;;;;;;;4.78;3.20;;;;;;;19.22;41.78;98382.22;5112169;28;20131;-64
2021/12/28 02:38:12;;;;;;;5.20;3.70;;;;;;;19.24;41.88;98387.38;5112510;28;20530;-64
2021/12/28 02:40:39;;;;;;;4.63;3.47;;;;;;;19.25;41.91;98384.22;5112212;28;20043;-64
2021/12/28 02:43:07;;;;;;;6.18;3.17;;;;;;;19.23;41.82;98381.03;5112286;28;20135;-64
2021/12/28 02:45:38;;;;;;;4.93;3.28;;;;;;;19.25;41.86;98372.31;5112413;28;20054;-64
2021/12/28 02:48:06;;;;;;;5.22;3.22;;;;;;;19.22;41.91;98362.03;5112288;28;20074;-54
2021/12/28 02:50:36;;;;;;;4.40;3.58;;;;;;;19.23;41.97;98349.75;5112254;28;20039;-64
2021/12/28 02:53:02;;;;;;;5.03;3.22;;;;;;;19.17;42.03;98337.44;5112269;28;20040;-63
2021/12/28 02:55:32;;;;;;;4.55;3.20;;;;;;;19.22;42.00;98350.94;5111972;28;20118;-64
2021/12/28 02:58:11;;;;;;;4.30;3.13;;;;;;;19.22;42.02;98351.72;5111959;28;20044;-63
2021/12/28 03:00:44;;;;;;;5.72;3.40;;;;;;;19.22;42.08;98351.72;5111916;28;20035;-64
2021/12/28 03:03:16;;;;;;;4.38;3.05;;;;;;;19.22;42.21;98351.72;5111724;28;20043;-66
2021/12/28 03:05:44;;;;;;;4.15;2.70;;;;;;;19.24;42.14;98356.88;5111944;28;20035;-66
2021/12/28 03:08:11;;;;;;;4.05;2.83;;;;;;;19.24;42.19;98354.91;5111869;28;20043;-66
2021/12/28 03:10:38;;;;;;;3.20;2.20;;;;;;;19.25;42.30;98358.47;5111690;28;20048;-57
2021/12/28 03:13:07;;;;;;;2.63;1.63;;;;;;;19.24;42.36;98371.53;5111507;28;20042;-57
2021/12/28 03:15:33;;;;;;;3.20;2.00;;;;;;;19.25;42.26;98378.66;5111690;28;20052;-57
2021/12/28 03:17:59;;;;;;;3.30;2.20;;;;;;;19.24;42.31;98377.06;5111675;28;20147;-58
2021/12/28 03:20:24;;;;;;;3.40;2.20;;;;;;;19.26;42.29;98379.47;5111603;28;20047;-57
2021/12/28 03:22:50;;;;;;;3.53;2.03;;;;;;;19.24;42.41;98374.31;5111839;28;20086;-57
2021/12/28 03:25:16;;;;;;;4.07;2.30;;;;;;;19.23;42.38;98381.03;5111768;28;20036;-57
2021/12/28 03:27:43;;;;;;;3.30;2.33;;;;;;;19.25;42.38;98373.13;5111799;28;20059;-57
2021/12/28 03:30:13;;;;;;;3.35;2.00;;;;;;;19.24;42.43;98363.22;5110534;28;20051;-57
2021/12/28 03:32:38;;;;;;;2.97;1.67;;;;;;;19.24;42.42;98360.44;5111635;28;20551;-57
2021/12/28 03:35:06;;;;;;;2.85;1.90;;;;;;;19.23;42.47;98364.41;5111483;28;20139;-57
2021/12/28 03:37:32;;;;;;;3.58;2.00;;;;;;;19.24;42.36;98360.44;5111481;28;20089;-57
2021/12/28 03:39:58;;;;;;;3.08;1.73;;;;;;;19.24;42.56;98352.13;5111426;28;20131;-66
2021/12/28 03:42:24;;;;;;;3.92;2.10;;;;;;;19.24;42.60;98352.13;5111481;28;20040;-66
2021/12/28 03:44:50;;;;;;;2.10;1.40;;;;;;;19.24;42.68;98354.91;5111159;28;20092;-66
2021/12/28 03:47:15;;;;;;;3.35;1.95;;;;;;;19.25;42.76;98375.09;5111206;28;20048;-66
2021/12/28 03:49:41;;;;;;;2.42;1.48;;;;;;;19.25;42.74;98372.31;5111340;28;20058;-66
2021/12/28 03:52:07;;;;;;;2.83;1.52;;;;;;;19.24;42.84;98368.75;5111026;28;20047;-66
2021/12/28 03:54:33;;;;;;;2.72;1.58;;;;;;;19.24;42.91;98362.44;5111204;28;20047;-66
2021/12/28 03:56:59;;;;;;;2.58;1.40;;;;;;;19.20;42.96;98351.31;5111164;28;20036;-66
2021/12/28 03:59:24;;;;;;;2.13;1.40;;;;;;;19.22;42.86;98356.47;5111058;28;20058;-66
2021/12/28 04:01:50;;;;;;;2.33;1.25;;;;;;;19.23;42.84;98367.19;5111088;28;20050;-66
2021/12/28 04:04:15;;;;;;;1.95;1.30;;;;;;;19.22;42.95;98354.50;5111089;28;20054;-66
2021/12/28 04:06:40;;;;;;;2.47;1.42;;;;;;;19.23;42.98;98361.63;5111196;28;20043;-66
2021/12/28 04:09:07;;;;;;;1.85;1.17;;;;;;;19.22;42.97;98365.59;5111127;28;20044;-65
2021/12/28 04:11:33;;;;;;;2.13;1.30;;;;;;;19.21;43.00;98361.22;5110914;28;20519;-66
2021/12/28 04:14:04;;;;;;;1.92;1.00;;;;;;;19.20;43.08;98333.88;5110843;28;20043;-66
2021/12/28 04:16:31;;;;;;;2.30;1.35;;;;;;;19.22;43.01;98331.53;5110958;28;20500;-66
2021/12/28 04:18:57;;;;;;;2.60;1.33;;;;;;;19.22;43.02;98332.31;5110905;28;20047;-57
2021/12/28 04:21:23;;;;;;;2.42;1.00;;;;;;;19.22;42.98;98329.56;5110575;28;20415;-57
2021/12/28 04:23:49;;;;;;;3.92;1.30;;;;;;;19.23;43.07;98349.75;5110559;28;20534;-57
2021/12/28 04:26:15;;;;;;;2.22;1.17;;;;;;;19.21;43.05;98350.13;5110812;28;20413;-57
2021/12/28 04:28:40;;;;;;;2.83;1.10;;;;;;;19.21;43.07;98360.41;5110655;28;20039;-57
2021/12/28 04:31:06;;;;;;;2.20;1.10;;;;;;;19.22;43.04;98356.47;5110457;28;20079;-57
2021/12/28 04:33:31;;;;;;;1.52;0.80;;;;;;;19.18;42.96;98337.06;5110569;28;20470;-57
2021/12/28 04:35:57;;;;;;;1.77;0.90;;;;;;;19.18;42.97;98339.81;5110716;28;20521;-57
2021/12/28 04:38:23;;;;;;;1.75;0.93;;;;;;;19.16;43.21;98331.09;5110596;28;20126;-57
2021/12/28 04:40:48;;;;;;;1.35;0.80;;;;;;;19.17;43.12;98352.09;5110453;28;20039;-56
2021/12/28 04:43:15;;;;;;;1.63;0.90;;;;;;;19.19;43.08;98360.03;5110405;28;20457;-57
2021/12/28 04:45:41;;;;;;;2.25;1.20;;;;;;;19.18;43.07;98359.22;5110339;28;20043;-57
2021/12/28 04:48:07;;;;;;;2.10;1.00;;;;;;;19.19;43.08;98373.88;5110324;28;20039;-57
2021/12/28 04:50:37;;;;;;;1.95;0.80;;;;;;;19.20;43.06;98359.63;5110224;28;20410;-57
2021/12/28 04:53:08;;;;;;;1.60;0.82;;;;;;;19.20;43.12;98367.94;5110332;28;20058;-57
2021/12/28 04:55:34;;;;;;;1.55;0.90;;;;;;;19.20;43.26;98381.81;5110235;28;20079;-57
2021/12/28 04:57:59;;;;;;;1.48;0.70;;;;;;;19.20;43.06;98367.94;5110169;28;20071;-65
2021/12/28 05:00:25;;;;;;;1.52;0.93;;;;;;;19.19;43.14;98357.25;5110100;28;20070;-66
2021/12/28 05:02:50;;;;;;;1.08;0.60;;;;;;;19.20;43.14;98364.38;5110067;28;20122;-66
2021/12/28 05:05:16;;;;;;;1.77;0.90;;;;;;;19.17;43.20;98371.50;5109909;28;20052;-66
2021/12/28 05:07:42;;;;;;;1.98;0.98;;;;;;;19.16;43.17;98358.03;5110006;28;20423;-66
2021/12/28 05:10:08;;;;;;;4.57;0.90;;;;;;;19.18;43.24;98373.09;5110073;28;20411;-66
2021/12/28 05:12:33;;;;;;;1.55;0.90;;;;;;;19.21;43.13;98382.59;5109916;28;20040;-66
2021/12/28 05:14:59;;;;;;;2.08;0.90;;;;;;;19.17;43.26;98395.66;5109957;28;20040;-65
2021/12/28 05:17:27;;;;;;;1.90;1.10;;;;;;;19.18;43.19;98392.50;5110143;28;20101;-66
2021/12/28 05:19:52;;;;;;;3.17;0.80;;;;;;;19.18;43.21;98389.72;5110054;28;20039;-66
2021/12/28 05:22:18;;;;;;;1.98;0.90;;;;;;;19.17;43.31;98384.56;5109799;28;20101;-66
2021/12/28 05:24:43;;;;;;;1.45;0.80;;;;;;;19.19;43.20;98366.34;5109750;28;20060;-66
2021/12/28 05:27:09;;;;;;;1.75;1.00;;;;;;;19.19;43.22;98373.88;5109801;28;20040;-66
2021/12/28 05:29:34;;;;;;;1.40;0.73;;;;;;;19.15;43.22;98365.56;5109809;28;20404;-66
2021/12/28 05:32:00;;;;;;;2.20;0.90;;;;;;;19.18;43.26;98364.78;5109693;28;20060;-66
2021/12/28 05:34:25;;;;;;;1.65;0.85;;;;;;;19.20;43.21;98379.03;5122633;28;20111;-66
2021/12/28 05:36:50;;;;;;;2.00;0.90;;;;;;;19.18;43.13;98370.31;5130427;27;20089;-66
2021/12/28 05:39:16;;;;;;;1.75;0.93;;;;;;;19.17;43.33;98360.41;5130261;27;20036;-65
2021/12/28 05:41:41;;;;;;;1.02;0.65;;;;;;;19.17;43.35;98352.09;5130296;27;20107;-66
2021/12/28 05:44:07;;;;;;;1.27;0.68;;;;;;;19.18;43.19;98366.75;5129961;28;20073;-65
2021/12/28 05:46:33;;;;;;;1.40;0.70;;;;;;;19.16;43.43;98372.69;5130106;27;20411;-66
2021/12/28 05:48:58;;;;;;;1.23;0.82;;;;;;;19.17;43.31;98365.97;5130128;27;20112;-66
2021/12/28 05:51:24;;;;;;;1.85;1.00;;;;;;;19.19;43.24;98374.66;5130158;27;20419;-66
2021/12/28 05:53:49;;;;;;;1.70;0.80;;;;;;;19.19;43.23;98374.66;5133339;27;20081;-66
2021/12/28 05:56:15;;;;;;;1.05;0.65;;;;;;;19.18;43.22;98369.53;5133625;28;20430;-66
2021/12/28 05:58:41;;;;;;;1.50;0.82;;;;;;;19.15;43.22;98351.69;5133701;27;20455;-66
2021/12/28 06:01:07;;;;;;;1.63;0.63;;;;;;;19.18;43.28;98362.00;5133757;27;20043;-66
2021/12/28 06:03:33;;;;;;;1.33;0.70;;;;;;;19.18;43.25;98378.63;5133533;27;20051;-66
2021/12/28 06:05:58;;;;;;;2.17;0.88;;;;;;;19.18;43.29;98386.94;5133429;27;20047;-66
2021/12/28 06:08:24;;;;;;;1.27;0.60;;;;;;;19.19;43.34;98384.97;5133617;27;20051;-66
2021/12/28 06:10:49;;;;;;;1.52;0.60;;;;;;;19.17;43.34;98379.03;5133358;27;20044;-66
2021/12/28 06:13:15;;;;;;;2.28;0.70;;;;;;;19.16;43.36;98372.69;5133411;27;20054;-66
2021/12/28 06:15:40;;;;;;;1.75;0.68;;;;;;;19.16;43.25;98360.81;5133228;27;20428;-66
2021/12/28 06:18:06;;;;;;;1.88;0.65;;;;;;;19.14;43.44;98341.78;5133319;27;20047;-66
2021/12/28 06:20:31;;;;;;;1.17;0.70;;;;;;;19.13;43.50;98379.00;5133268;27;20134;-66
2021/12/28 06:22:57;;;;;;;1.25;0.70;;;;;;;19.15;43.46;98378.63;5133241;27;20048;-66
2021/12/28 06:25:22;;;;;;;1.23;0.65;;;;;;;19.14;43.42;98383.34;5133114;27;20050;-66
2021/12/28 06:27:48;;;;;;;1.65;0.80;;;;;;;19.16;43.48;98367.16;5133374;27;20039;-66
2021/12/28 06:30:13;;;;;;;1.40;0.77;;;;;;;19.16;43.32;98369.13;5133012;27;20087;-66
2021/12/28 06:32:40;;;;;;;1.35;0.73;;;;;;;19.13;43.54;98373.44;5132990;27;20120;-66
2021/12/28 06:35:06;;;;;;;1.45;0.80;;;;;;;19.13;43.48;98379.00;5133022;27;20088;-66
2021/12/28 06:37:31;;;;;;;1.45;0.70;;;;;;;19.12;43.51;98368.31;5133142;27;20047;-66
2021/12/28 06:39:57;;;;;;;1.50;0.70;;;;;;;19.13;43.51;98367.91;5132980;27;20450;-66
2021/12/28 06:42:22;;;;;;;1.75;0.90;;;;;;;19.12;43.51;98363.56;5133040;27;20433;-66
2021/12/28 06:44:48;;;;;;;1.45;0.77;;;;;;;19.12;43.48;98380.19;5133121;28;20047;-66
2021/12/28 06:47:14;;;;;;;1.30;0.70;;;;;;;19.11;43.52;98389.69;5132892;27;20474;-57
2021/12/28 06:49:40;;;;;;;1.65;0.88;;;;;;;19.13;43.39;98381.75;5132923;27;20515;-57
2021/12/28 06:52:06;;;;;;;1.50;0.80;;;;;;;19.13;43.51;98373.44;5133062;27;20113;-57
2021/12/28 06:54:36;;;;;;;1.20;0.60;;;;;;;19.11;43.54;98375.81;5132753;27;20046;-66
2021/12/28 06:57:07;;;;;;;1.65;0.90;;;;;;;19.12;43.59;98382.94;5132693;27;20131;-66
2021/12/28 06:59:33;;;;;;;1.10;0.70;;;;;;;19.12;43.61;98376.63;5132573;27;20077;-66
2021/12/28 07:02:00;;;;;;;1.23;0.80;;;;;;;19.12;43.58;98366.31;5132573;28;20047;-66
2021/12/28 07:04:25;;;;;;;1.38;0.70;;;;;;;19.10;43.61;98365.94;5130978;27;20055;-66
2021/12/28 07:06:51;;;;;;;1.42;0.80;;;;;;;19.13;43.55;98365.13;5132560;27;20116;-57
2021/12/28 07:09:16;;;;;;;1.58;0.70;;;;;;;19.12;43.63;98369.09;5132545;28;20051;-57
2021/12/28 07:11:41;;;;;;;1.17;0.65;;;;;;;19.10;43.68;98371.47;5132380;27;20062;-57
2021/12/28 07:14:07;;;;;;;1.73;0.90;;;;;;;19.13;43.61;98383.75;5132510;27;20096;-57
2021/12/28 07:16:32;;;;;;;1.10;0.60;;;;;;;19.12;43.60;98362.75;5132214;27;20503;-57
2021/12/28 07:18:57;;;;;;;1.75;0.88;;;;;;;19.11;43.67;98392.44;5132239;28;20050;-57
2021/12/28 07:21:23;;;;;;;1.35;0.80;;;;;;;19.10;43.67;98390.88;5132199;27;20050;-57
2021/12/28 07:23:48;;;;;;;1.42;0.80;;;;;;;19.11;43.62;98389.69;5132174;27;20047;-66
2021/12/28 07:26:14;;;;;;;1.92;0.90;;;;;;;19.10;43.60;98385.31;5132151;27;20127;-66
2021/12/28 07:28:39;;;;;;;1.48;0.70;;;;;;;19.06;43.62;98387.28;5132225;27;20031;-66
2021/12/28 07:31:05;;;;;;;1.23;0.60;;;;;;;19.11;43.54;98388.88;5131967;27;20043;-65
2021/12/28 07:33:30;;;;;;;0.57;0.40;;;;;;;19.08;43.58;98381.38;5132082;28;20478;-66
2021/12/28 07:35:56;;;;;;;1.33;0.70;;;;;;;19.22;43.43;98396.09;5132405;27;20562;-66
2021/12/28 07:38:21;;;;;;;1.10;0.60;;;;;;;20.15;41.88;98407.50;5132249;27;20533;-66
2021/12/28 07:40:47;;;;;;;1.30;0.68;;;;;;;20.34;41.19;98411.88;5132210;27;20523;-66
2021/12/28 07:43:13;;;;;;;1.77;0.80;;;;;;;20.17;41.49;98394.00;5132138;27;20046;-66
2021/12/28 07:45:38;;;;;;;0.95;0.63;;;;;;;19.98;41.86;98409.03;5132058;27;20118;-67
2021/12/28 07:48:04;;;;;;;1.00;0.60;;;;;;;19.79;42.09;98417.75;5131957;27;20118;-66
2021/12/28 07:50:29;;;;;;;0.90;0.50;;;;;;;19.65;42.57;98407.38;5131784;27;20153;-66
2021/12/28 07:52:55;;;;;;;1.15;0.60;;;;;;;19.57;42.54;98421.56;5131978;27;20100;-67
2021/12/28 07:55:21;;;;;;;0.95;0.50;;;;;;;19.48;42.88;98431.03;5132399;27;20138;-67
2021/12/28 07:57:46;;;;;;;0.52;0.40;;;;;;;19.42;42.92;98434.59;5132417;27;20100;-67
2021/12/28 08:00:18;;;;;;;1.48;0.70;;;;;;;19.37;43.01;98433.00;5132273;27;20039;-57
2021/12/28 08:02:45;;;;;;;0.95;0.60;;;;;;;19.33;43.15;98415.53;5131754;27;20403;-57
2021/12/28 08:05:12;;;;;;;0.95;0.60;;;;;;;19.33;43.12;98423.06;5131669;27;20047;-57
2021/12/28 08:07:38;;;;;;;2.13;0.57;;;;;;;19.30;43.27;98429.41;5131553;27;20442;-57
2021/12/28 08:10:04;;;;;;;0.90;0.40;;;;;;;19.25;43.24;98433.31;5131664;27;20057;-57
2021/12/28 08:12:30;;;;;;;1.00;0.60;;;;;;;19.27;43.30;98438.47;5131463;27;20040;-66
2021/12/28 08:14:56;;;;;;;1.33;0.40;;;;;;;19.26;43.29;98434.91;5130826;27;20043;-66
2021/12/28 08:17:22;;;;;;;1.15;0.60;;;;;;;19.23;43.53;98444.00;5131207;27;20039;-66
2021/12/28 08:19:47;;;;;;;2.22;0.60;;;;;;;19.23;43.46;98442.03;5131205;27;20056;-66
2021/12/28 08:22:13;;;;;;;1.27;0.60;;;;;;;19.22;43.48;98434.91;5131498;28;20125;-66
2021/12/28 08:24:38;;;;;;;0.95;0.50;;;;;;;19.22;43.51;98446.00;5131372;27;20163;-66
2021/12/28 08:27:04;;;;;;;0.50;0.50;;;;;;;19.22;43.43;98459.84;5131204;27;20035;-66
2021/12/28 08:29:29;;;;;;;0.73;0.50;;;;;;;19.21;43.59;98460.22;5130859;27;20047;-66
2021/12/28 08:31:55;;;;;;;0.60;0.40;;;;;;;19.18;43.58;98470.09;5131008;27;20050;-66
2021/12/28 08:34:20;;;;;;;1.27;0.63;;;;;;;19.21;43.61;98479.63;5131326;27;20058;-57
2021/12/28 08:36:46;;;;;;;1.15;0.40;;;;;;;19.15;43.65;98479.22;5130891;27;20043;-57
2021/12/28 08:39:11;;;;;;;0.65;0.45;;;;;;;19.16;43.66;98480.78;5130875;27;20050;-57
2021/12/28 08:41:36;;;;;;;0.45;0.30;;;;;;;19.16;43.59;98471.69;5130786;27;20091;-57
2021/12/28 08:44:03;;;;;;;0.90;0.47;;;;;;;19.13;43.62;98476.00;5130295;27;20521;-57
2021/12/28 08:46:29;;;;;;;0.80;0.43;;;;;;;19.16;43.74;98480.78;5130998;27;20039;-57
2021/12/28 08:48:55;;;;;;;0.60;0.47;;;;;;;19.17;43.71;98492.69;5130875;27;20045;-57
2021/12/28 08:51:20;;;;;;;0.60;0.43;;;;;;;19.16;43.66;98482.78;5130813;27;20126;-57
2021/12/28 08:53:46;;;;;;;0.40;0.40;;;;;;;19.16;43.73;98504.94;5130680;27;20126;-57
2021/12/28 08:56:11;;;;;;;0.63;0.40;;;;;;;19.15;43.73;98501.38;5130718;27;20062;-57
2021/12/28 08:58:37;;;;;;;0.47;0.40;;;;;;;19.15;43.82;98504.16;5130768;27;20058;-57
2021/12/28 09:01:03;;;;;;;0.60;0.30;;;;;;;19.14;43.88;98494.22;5130908;27;20097;-57
2021/12/28 09:03:29;;;;;;;0.65;0.38;;;;;;;19.15;43.81;98483.97;5130655;27;20058;-57
2021/12/28 09:05:54;;;;;;;0.70;0.47;;;;;;;19.17;43.89;98503.75;5130657;27;20085;-57
2021/12/28 09:08:20;;;;;;;0.47;0.30;;;;;;;19.15;43.95;98518.00;5130713;28;20074;-57
2021/12/28 09:10:46;;;;;;;0.73;0.52;;;;;;;19.13;44.05;98514.81;5130410;28;20084;-57
2021/12/28 09:13:14;;;;;;;0.88;0.60;;;;;;;19.16;43.87;98529.91;5130356;28;20050;-57
2021/12/28 09:15:40;;;;;;;0.98;0.60;;;;;;;19.15;43.90;98531.88;5130405;27;20047;-57
2021/12/28 09:18:05;;;;;;;1.35;0.63;;;;;;;19.15;44.01;98533.84;5130544;27;20411;-57
2021/12/28 09:20:31;;;;;;;0.95;0.60;;;;;;;19.14;44.05;98524.72;5130541;27;20487;-57
2021/12/28 09:22:56;;;;;;;1.50;0.80;;;;;;;19.12;44.03;98538.16;5130341;27;20039;-57
2021/12/28 09:25:23;;;;;;;1.42;0.77;;;;;;;19.14;44.11;98546.09;5129109;28;20051;-57
2021/12/28 09:27:49;;;;;;;1.70;0.90;;;;;;;19.13;44.12;98544.50;5132142;27;20055;-57
2021/12/28 09:30:16;;;;;;;1.13;0.60;;;;;;;19.12;44.03;98554.81;5134296;27;20050;-57
2021/12/28 09:32:42;;;;;;;1.48;0.88;;;;;;;19.12;44.12;98557.56;5133985;27;20039;-57
2021/12/28 09:35:09;;;;;;;1.98;1.10;;;;;;;19.13;44.13;98573.03;5133934;27;20442;-57
2021/12/28 09:37:34;;;;;;;1.42;0.90;;;;;;;19.14;44.06;98559.97;5133784;28;20122;-57
2021/12/28 09:40:02;;;;;;;1.30;0.80;;;;;;;19.12;44.14;98567.88;5133820;27;20179;-57
2021/12/28 09:42:28;;;;;;;1.60;0.98;;;;;;;19.12;44.13;98578.94;5133667;27;20427;-57
2021/12/28 09:44:53;;;;;;;1.60;0.98;;;;;;;19.10;44.25;98581.31;5133845;27;20518;-57
2021/12/28 09:47:20;;;;;;;1.73;0.90;;;;;;;19.08;44.13;98589.22;5133709;28;20046;-57
2021/12/28 09:49:47;;;;;;;1.65;0.90;;;;;;;19.11;44.20;98589.25;5133683;27;20138;-57
2021/12/28 09:52:14;;;;;;;1.50;0.80;;;;;;;19.12;44.22;98590.03;5133860;27;20570;-57
2021/12/28 09:54:40;;;;;;;1.73;1.00;;;;;;;19.12;44.14;98596.38;5129739;28;20086;-57
2021/12/28 09:57:06;;;;;;;1.67;0.90;;;;;;;19.14;44.25;98598.75;5133534;27;20070;-57
2021/12/28 09:59:32;;;;;;;1.52;0.90;;;;;;;19.13;44.40;98591.63;5133397;27;20094;-57
2021/12/28 10:01:59;;;;;;;1.90;0.90;;;;;;;19.10;44.44;98587.66;5133503;27;20491;-57
2021/12/28 10:04:26;;;;;;;1.60;0.90;;;;;;;19.10;44.40;98598.75;5133518;27;20092;-57
2021/12/28 10:06:52;;;;;;;1.90;1.08;;;;;;;19.11;44.45;98596.78;5133510;27;20129;-57
2021/12/28 10:09:21;;;;;;;1.83;1.10;;;;;;;19.10;44.40;98598.75;5133445;27;20125;-57
2021/12/28 10:11:54;;;;;;;2.55;1.20;;;;;;;19.09;44.44;98604.69;5133394;27;20046;-57
2021/12/28 10:14:24;;;;;;;2.10;1.10;;;;;;;19.11;44.39;98608.66;5133141;27;20078;-57
2021/12/28 10:16:58;;;;;;;3.65;1.17;;;;;;;19.09;44.57;98604.69;5133482;27;20519;-57
2021/12/28 10:19:40;;;;;;;1.30;0.88;;;;;;;19.09;44.54;98611.00;5133328;27;20039;-57
2021/12/28 10:22:38;;;;;;;2.22;1.10;;;;;;;19.20;44.26;98622.97;5133038;27;20047;-57
2021/12/28 10:25:19;;;;;;;1.70;0.90;;;;;;;20.42;42.07;98609.88;5132999;27;20055;-66
2021/12/28 10:27:50;;;;;;;2.28;1.30;;;;;;;20.43;42.09;98609.50;5133171;27;20039;-66
2021/12/28 10:30:27;;;;;;;2.03;1.20;;;;;;;20.24;42.25;98615.38;5132947;27;20503;-66
2021/12/28 10:32:55;;;;;;;2.08;1.10;;;;;;;20.00;42.65;98625.16;5133061;27;20461;-66
2021/12/28 10:35:24;;;;;;;2.50;1.48;;;;;;;19.86;42.95;98637.00;5132914;27;20043;-66
2021/12/28 10:37:53;;;;;;;2.95;1.30;;;;;;;19.72;43.30;98637.69;5132563;27;20079;-66
2021/12/28 10:40:49;;;;;;;2.42;1.30;;;;;;;19.58;43.58;98601.53;5132920;27;20047;-66
2021/12/28 10:43:24;;;;;;;2.30;1.30;;;;;;;19.47;43.70;98598.63;5131354;28;20142;-57
2021/12/28 10:45:54;;;;;;;2.55;1.35;;;;;;;19.40;43.99;98611.66;5132870;27;20499;-57
2021/12/28 10:48:25;;;;;;;3.55;1.40;;;;;;;19.39;44.01;98646.13;5132738;27;20050;-57
2021/12/28 10:51:09;;;;;;;2.72;1.33;;;;;;;19.34;44.09;98632.59;5132779;27;20072;-57
2021/12/28 10:56:54;;;;;;;2.22;1.27;;;;;;;19.30;44.18;98606.84;5132654;27;20100;-57
2021/12/28 10:59:22;;;;;;;2.92;1.50;;;;;;;19.27;44.32;98615.91;5132033;28;20065;-57
2021/12/28 11:01:49;;;;;;;3.17;1.58;;;;;;;19.25;44.33;98610.75;5132536;27;20054;-57
2021/12/28 11:04:15;;;;;;;2.28;1.30;;;;;;;19.22;44.34;98612.31;5132441;27;20076;-57
2021/12/28 11:06:42;;;;;;;2.63;1.60;;;;;;;19.22;44.56;98617.06;5132493;27;20332;-57
2021/12/28 11:09:15;;;;;;;2.38;1.33;;;;;;;19.22;44.48;98617.88;5132440;27;20122;-57
2021/12/28 11:11:41;;;;;;;2.40;1.48;;;;;;;19.20;44.54;98609.13;5132343;27;20061;-66
2021/12/28 11:14:10;;;;;;;2.95;1.50;;;;;;;19.18;44.52;98617.03;5132420;27;20071;-66
2021/12/28 11:16:39;;;;;;;2.15;1.35;;;;;;;19.16;44.68;98626.91;5132522;27;20047;-66
2021/12/28 11:19:10;;;;;;;2.70;1.50;;;;;;;19.17;44.61;98623.75;5132654;27;20074;-57
2021/12/28 11:21:37;;;;;;;4.63;1.67;;;;;;;19.16;44.54;98597.22;5132461;27;20046;-57
2021/12/28 11:24:05;;;;;;;2.25;1.30;;;;;;;19.16;44.67;98586.13;5132205;27;20495;-57
2021/12/28 11:26:31;;;;;;;2.88;1.65;;;;;;;19.14;44.67;98571.03;5132247;27;20043;-57
2021/12/28 11:29:06;;;;;;;2.42;1.52;;;;;;;19.15;44.69;98583.75;5132398;27;20303;-57
2021/12/28 11:31:57;;;;;;;2.38;1.60;;;;;;;19.14;44.71;98579.34;5132097;27;20491;-57
2021/12/28 11:34:25;;;;;;;2.13;1.30;;;;;;;19.12;44.82;98588.06;5132176;27;20072;-66
2021/12/28 11:37:03;;;;;;;2.88;1.40;;;;;;;19.12;44.75;98601.91;5132080;28;20043;-66
2021/12/28 11:39:33;;;;;;;2.60;1.52;;;;;;;19.14;44.74;98598.75;5132106;27;20096;-63